KDWH

David Wayne Hooks Memorial Airport

Houston, Texas, USA
METAR KDWH 201517Z 16010G18KT 10SM SCT022 BKN030 OVC060 23/20 A3003 RMK AO2 T02330200
Observed Flight Rules
Feb-20 @ 15:17 UTC (2 hours ago) Marginal Visual Flight Rules
Wind Visibility Clouds
160° at 10 knots
 Gusting to 18 knots
10 miles
  • Scattered at 2,200' AGL
  • Broken at 3,000' AGL
  • Overcast at 6,000' AGL
Temperatures Readings
Current 23°C / 73°F
Dewpoint 20°C / 68°F
Humidity 83%
Altimeter 30.03" Hg
Pressure 1017 hPa
Elevation 46
METAR KDWH 201517Z 16010G18KT 10SM SCT022 BKN030 OVC060 23/20 A3003 RMK AO2 T02330200
Observed Flight Rules
Feb-20 @ 15:17 UTC
(2 hours ago)
MVFR
Wind Visibility
160° at 10 knots
 Gusting to 18 knots
10 miles
Clouds
  • Scattered at 2,200' AGL
  • Broken at 3,000' AGL
  • Overcast at 6,000' AGL
Temperature Dewpoint
23°C / 73°F 20°C / 68°F
Humidity Altimeter Pressure
83% 30.03" Hg 1017 hPa